Time;durP1;ratioP1;P1;durP2;ratioP2;P2;SDS_P1;SDS_P2;PMS_P1;PMS_P2;Temp;Humidity;BMP_temperature;BMP_pressure;BME280_temperature;BME280_humidity;BME280_pressure;Samples;Min_cycle;Max_cycle;Signal;HPM_P1;HPM_P2
2022/04/26 03:37:55;;;;;;;28.40;7.87;;;;;;;13.73;92.93;98816.03;5038479;28;20266;-86
2022/04/26 03:40:20;;;;;;;21.53;7.67;;;;;;;13.84;92.87;98830.69;5035512;28;20258;-86
2022/04/26 03:42:46;;;;;;;29.43;7.90;;;;;;;13.93;92.56;98822.38;5035672;28;20172;-86
2022/04/26 03:45:11;;;;;;;26.07;8.30;;;;;;;14.40;92.76;98913.38;5035279;28;20200;-86
2022/04/26 03:47:36;;;;;;;27.53;8.27;;;;;;;14.45;92.27;98913.47;5036528;28;20162;-84
2022/04/26 03:50:02;;;;;;;30.33;8.20;;;;;;;14.17;91.94;98868.72;5037690;28;20173;-85
2022/04/26 03:52:27;;;;;;;23.33;7.43;;;;;;;14.30;92.42;98893.59;5035024;28;20173;-85
2022/04/26 03:54:53;;;;;;;21.80;7.40;;;;;;;14.46;92.00;98931.31;5034971;28;20637;-85
2022/04/26 03:57:18;;;;;;;19.93;7.67;;;;;;;13.99;90.86;98822.50;5033706;28;20201;-84
2022/04/26 03:59:44;;;;;;;27.50;10.57;;;;;;;12.67;89.59;98638.22;5034468;28;20201;-84
2022/04/26 04:02:09;;;;;;;25.63;9.30;;;;;;;12.91;92.16;98741.25;5016487;28;20674;-85
2022/04/26 04:04:34;;;;;;;18.50;7.73;;;;;;;13.82;92.04;98935.78;5015860;28;20583;-85
2022/04/26 04:07:00;;;;;;;17.70;7.37;;;;;;;13.68;92.90;98935.47;5012186;28;20277;-85
2022/04/26 04:09:25;;;;;;;23.03;7.77;;;;;;;13.31;92.50;98865.09;5029667;28;20198;-86
2022/04/26 04:11:52;;;;;;;21.57;7.40;;;;;;;12.07;91.78;98651.16;5031959;28;20185;-86
2022/04/26 04:14:17;;;;;;;24.90;7.27;;;;;;;14.00;90.74;98946.41;5033438;28;20190;-86
2022/04/26 04:16:42;;;;;;;26.07;9.27;;;;;;;14.15;89.98;98955.22;5047093;28;20193;-85
2022/04/26 04:19:21;;;;;;;19.93;7.33;;;;;;;13.70;87.52;98864.28;5033538;28;20178;-85
2022/04/26 04:21:48;;;;;;;17.23;6.80;;;;;;;12.97;88.36;98745.59;5012731;28;20273;-86
2022/04/26 04:24:14;;;;;;;23.03;7.00;;;;;;;14.10;88.31;98956.81;5024139;28;20186;-86
2022/04/26 04:26:40;;;;;;;18.70;6.80;;;;;;;13.12;89.30;98822.25;5033682;28;20185;-87
2022/04/26 04:29:05;;;;;;;21.73;6.80;;;;;;;13.81;88.50;98876.44;5047237;28;20261;-86
2022/04/26 04:31:32;;;;;;;19.07;7.13;;;;;;;14.45;87.48;98956.78;5032619;28;20208;-84
2022/04/26 04:33:57;;;;;;;21.47;7.10;;;;;;;14.47;86.17;98933.06;5032040;28;20832;-87
2022/04/26 04:36:23;;;;;;;29.60;7.60;;;;;;;13.45;85.85;98762.03;5032646;28;20208;-86
2022/04/26 04:38:48;;;;;;;17.43;7.30;;;;;;;14.24;83.84;98920.63;5033427;28;20201;-86
2022/04/26 04:41:14;;;;;;;22.60;7.50;;;;;;;12.68;84.12;98662.78;5034164;28;20182;-86
2022/04/26 04:43:40;;;;;;;24.30;8.00;;;;;;;14.03;84.94;98885.38;5033473;28;20178;-85
2022/04/26 04:46:05;;;;;;;23.23;7.57;;;;;;;14.81;83.05;98966.81;5051733;28;20184;-87
2022/04/26 04:48:31;;;;;;;17.40;6.50;;;;;;;14.59;81.47;98966.41;5045350;28;20190;-88
2022/04/26 04:50:56;;;;;;;14.97;5.73;;;;;;;13.63;80.48;98789.53;5050181;28;20189;-86
2022/04/26 04:53:22;;;;;;;18.43;5.97;;;;;;;14.28;78.43;98811.25;5033162;28;20324;-85
2022/04/26 04:55:48;;;;;;;14.40;5.80;;;;;;;14.55;76.82;98837.28;5032655;28;20244;-86
2022/04/26 04:58:13;;;;;;;9.63;5.60;;;;;;;15.15;75.83;98961.56;5033171;28;20202;-87
2022/04/26 05:00:39;;;;;;;18.47;6.00;;;;;;;14.86;77.87;98944.88;5036926;28;20186;-84
2022/04/26 05:03:04;;;;;;;14.50;4.90;;;;;;;14.81;74.72;98931.16;5023707;28;20280;-84
2022/04/26 05:05:30;;;;;;;14.33;4.77;;;;;;;14.77;74.17;98913.28;5036165;28;20249;-87
2022/04/26 05:07:58;;;;;;;16.13;5.40;;;;;;;14.54;73.30;98875.44;5033561;28;20190;-84
2022/04/26 05:10:24;;;;;;;14.10;4.90;;;;;;;15.66;72.12;98988.00;5035102;28;20185;-86
2022/04/26 05:12:49;;;;;;;13.97;4.93;;;;;;;15.61;71.23;98935.19;5032777;28;20189;-87
2022/04/26 05:15:15;;;;;;;13.10;5.37;;;;;;;16.08;71.02;98964.84;5015694;28;20222;-85
2022/04/26 05:17:40;;;;;;;17.67;5.30;;;;;;;13.90;69.65;98593.34;5014766;28;20697;-86
2022/04/26 05:20:06;;;;;;;13.77;5.27;;;;;;;15.49;67.71;98821.06;5013096;28;20194;-87
2022/04/26 05:24:53;;;;;;;16.30;5.27;;;;;;;14.71;68.24;98770.47;5025921;28;20174;-86
2022/04/26 05:25:17;;;;;;;15.83;5.50;;;;;;;16.27;67.49;99002.59;5035214;28;20330;-88
2022/04/26 05:27:42;;;;;;;14.83;4.60;;;;;;;15.32;66.44;98761.25;5035364;28;20237;-86
2022/04/26 05:30:09;;;;;;;22.07;6.50;;;;;;;16.96;65.65;98987.34;5033554;28;20284;-88
2022/04/26 05:32:34;;;;;;;10.80;4.77;;;;;;;14.96;65.08;98640.88;5035417;28;20283;-87
2022/04/26 05:35:01;;;;;;;12.27;4.93;;;;;;;17.45;64.07;98998.09;5041139;28;20244;-84
2022/04/26 05:37:29;;;;;;;10.60;4.70;;;;;;;17.76;61.30;98994.16;5043795;28;20213;-87
2022/04/26 05:39:55;;;;;;;9.67;4.07;;;;;;;16.28;62.07;98796.56;5042400;28;20284;-87
2022/04/26 05:42:21;;;;;;;12.57;4.70;;;;;;;16.60;63.00;98925.56;5041534;28;20178;-87
2022/04/26 05:44:47;;;;;;;14.87;4.40;;;;;;;15.83;63.46;98815.56;5043999;28;20192;-89
2022/04/26 05:47:12;;;;;;;13.37;4.60;;;;;;;16.97;62.10;98912.38;5015536;28;20579;-87
2022/04/26 05:49:38;;;;;;;9.60;4.40;;;;;;;17.40;61.23;98992.94;5012193;28;20197;-86
2022/04/26 05:52:03;;;;;;;13.77;4.30;;;;;;;17.66;61.00;99000.91;5018671;28;20182;-85
2022/04/26 05:54:30;;;;;;;13.43;4.57;;;;;;;17.57;61.25;98999.13;5020871;28;20186;-87
2022/04/26 05:56:56;;;;;;;11.30;4.67;;;;;;;17.88;61.44;99010.47;5028340;28;20590;-86
2022/04/26 05:59:22;;;;;;;18.80;4.97;;;;;;;18.26;60.64;98998.84;5034182;28;20630;-85
2022/04/26 06:01:48;;;;;;;15.30;4.33;;;;;;;17.99;60.60;99010.59;5017794;28;20194;-89
2022/04/26 06:04:14;;;;;;;16.73;4.53;;;;;;;17.19;60.58;98935.59;5005812;28;20237;-87
2022/04/26 06:06:39;;;;;;;12.97;4.43;;;;;;;18.00;59.33;99005.47;5024309;28;20185;-88
2022/04/26 06:09:05;;;;;;;11.77;4.23;;;;;;;17.99;58.02;98934.56;5071118;28;20193;-85
2022/04/26 06:11:32;;;;;;;10.23;4.43;;;;;;;16.51;58.36;98752.50;5045498;28;20186;-87
2022/04/26 06:13:58;;;;;;;16.47;4.23;;;;;;;17.08;59.63;98899.69;5067084;28;20660;-87
2022/04/26 06:16:23;;;;;;;12.57;4.57;;;;;;;17.78;59.31;98995.88;5034204;28;20313;-89
2022/04/26 06:18:49;;;;;;;16.40;4.60;;;;;;;18.24;58.82;98992.81;5041758;28;20217;-85
2022/04/26 06:21:15;;;;;;;11.60;4.50;;;;;;;17.48;58.33;98796.81;5039795;28;20182;-88
2022/04/26 06:23:40;;;;;;;19.50;4.80;;;;;;;17.27;58.26;98762.56;5033781;28;20194;-87
2022/04/26 06:26:06;;;;;;;12.10;4.33;;;;;;;18.67;56.32;98991.41;5033247;28;20216;-85
2022/04/26 06:28:32;;;;;;;15.40;3.60;;;;;;;17.56;56.13;98812.25;5047292;28;20259;-89
2022/04/26 06:30:58;;;;;;;8.30;3.40;;;;;;;18.39;53.77;98955.31;5032832;28;20677;-88
2022/04/26 06:33:23;;;;;;;8.47;3.90;;;;;;;18.57;54.32;98984.50;5047668;28;20193;-87
2022/04/26 06:35:49;;;;;;;12.40;3.60;;;;;;;17.99;54.02;98893.59;5029615;28;20190;-87
2022/04/26 06:38:16;;;;;;;9.40;3.53;;;;;;;18.85;52.83;98993.19;5044886;28;20201;-86
2022/04/26 06:40:41;;;;;;;11.30;3.53;;;;;;;19.54;51.63;98982.28;5030011;28;20186;-89
2022/04/26 06:43:07;;;;;;;10.83;4.10;;;;;;;19.46;50.81;98927.50;5048031;28;20185;-89
2022/04/26 06:45:33;;;;;;;9.53;3.83;;;;;;;17.29;51.61;98526.34;5039812;28;20184;-87
2022/04/26 06:47:59;;;;;;;9.93;3.30;;;;;;;18.57;49.78;98752.94;5042188;28;20201;-85
2022/04/26 06:50:25;;;;;;;7.97;3.30;;;;;;;19.59;49.94;98903.53;5038217;28;20174;-86
2022/04/26 06:52:50;;;;;;;8.23;3.80;;;;;;;20.18;49.58;98944.59;5037006;28;20174;-88
2022/04/26 06:55:16;;;;;;;11.23;3.80;;;;;;;19.74;48.64;98797.38;5036266;28;20903;-90
2022/04/26 06:57:41;;;;;;;10.53;3.33;;;;;;;20.58;46.50;98897.34;5061292;28;20197;-85
2022/04/26 07:00:08;;;;;;;7.70;2.90;;;;;;;20.42;46.48;98993.41;5074690;28;20182;-86
2022/04/26 07:02:34;;;;;;;9.53;3.33;;;;;;;20.14;46.08;98883.75;5038625;28;20213;-85
2022/04/26 07:04:59;;;;;;;10.03;2.67;;;;;;;19.21;45.60;98749.50;5026236;28;20289;-86
2022/04/26 07:07:25;;;;;;;8.07;2.80;;;;;;;20.58;44.72;98905.06;5024980;28;20233;-86
2022/04/26 07:09:50;;;;;;;11.67;2.90;;;;;;;19.70;44.33;98703.19;5017566;28;20187;-86
2022/04/26 07:12:16;;;;;;;7.17;2.83;;;;;;;20.46;44.69;98791.94;5018331;28;20270;-88
2022/04/26 07:14:42;;;;;;;10.50;2.80;;;;;;;21.10;43.86;98952.00;5053261;28;20254;-86
2022/04/26 07:17:08;;;;;;;11.10;3.17;;;;;;;20.63;44.33;98875.91;5054784;28;20202;-85
2022/04/26 07:19:36;;;;;;;11.93;3.10;;;;;;;20.54;43.67;98773.94;5016679;28;20202;-88
2022/04/26 07:22:06;;;;;;;7.70;2.83;;;;;;;22.18;43.58;98975.25;5015916;28;20193;-87
2022/04/26 07:24:32;;;;;;;9.93;3.40;;;;;;;22.32;43.70;98963.09;5010973;28;20237;-81
2022/04/26 07:26:58;;;;;;;11.30;2.97;;;;;;;22.71;42.73;98997.97;5011492;28;20178;-79
2022/04/26 07:29:23;;;;;;;8.77;3.80;;;;;;;22.32;42.60;98926.97;5011672;28;20174;-82
2022/04/26 07:31:49;;;;;;;9.47;3.10;;;;;;;22.55;43.08;98970.56;5021101;28;20288;-82
2022/04/26 07:34:20;;;;;;;8.30;2.70;;;;;;;22.72;42.08;99004.81;5014240;28;20284;-81
2022/04/26 07:36:46;;;;;;;11.63;2.90;;;;;;;23.04;41.48;99004.44;5010263;28;20186;-82
2022/04/26 07:39:11;;;;;;;7.50;3.40;;;;;;;23.00;40.75;98945.09;5010327;28;20190;-82
2022/04/26 07:41:37;;;;;;;10.27;2.77;;;;;;;23.22;39.89;98965.44;5029153;28;20181;-80
2022/04/26 07:44:02;;;;;;;7.40;2.80;;;;;;;23.83;39.65;99011.09;5028732;28;20178;-82
2022/04/26 07:46:28;;;;;;;9.60;3.23;;;;;;;23.78;40.14;98985.31;5027909;28;20189;-82
2022/04/26 07:48:55;;;;;;;12.40;2.87;;;;;;;24.00;40.06;99007.38;5028881;28;20649;-80
2022/04/26 07:51:21;;;;;;;8.93;3.30;;;;;;;23.94;40.63;98999.69;5029643;28;20182;-86
2022/04/26 07:53:46;;;;;;;9.17;3.33;;;;;;;23.38;40.08;98929.94;5029249;28;20276;-82
2022/04/26 07:56:12;;;;;;;11.73;4.20;;;;;;;23.41;41.19;99002.25;5029703;28;20220;-81
2022/04/26 07:58:37;;;;;;;12.63;3.50;;;;;;;23.06;40.51;98885.63;5029072;28;20202;-82
2022/04/26 08:01:04;;;;;;;9.20;3.37;;;;;;;23.44;41.25;98969.47;5061443;28;20190;-80
2022/04/26 08:03:32;;;;;;;11.83;3.57;;;;;;;23.99;41.14;98997.88;5017344;28;20928;-80
2022/04/26 08:05:57;;;;;;;10.20;3.60;;;;;;;23.86;41.36;98960.19;5028045;28;20184;-81
2022/04/26 08:08:23;;;;;;;10.17;3.60;;;;;;;23.67;41.46;98961.38;5027633;28;20190;-80
2022/04/26 08:10:49;;;;;;;14.80;4.00;;;;;;;23.29;42.01;98932.66;5028267;28;20192;-83
2022/04/26 08:13:15;;;;;;;12.17;4.30;;;;;;;23.74;42.90;98993.97;5028524;28;20278;-83
2022/04/26 08:15:40;;;;;;;12.67;3.83;;;;;;;23.83;41.60;98990.41;5028193;28;20226;-82
2022/04/26 08:18:06;;;;;;;15.47;4.17;;;;;;;23.86;41.36;98974.84;5027644;28;20910;-81
2022/04/26 08:20:32;;;;;;;13.93;3.93;;;;;;;23.55;42.23;98916.75;5029575;28;20225;-82
2022/04/26 08:22:58;;;;;;;16.03;4.23;;;;;;;24.04;41.16;98949.50;5029464;28;20188;-82
2022/04/26 08:28:07;;;;;;;16.63;4.00;;;;;;;24.01;41.72;98987.50;5013999;28;20214;-82
2022/04/26 08:30:34;;;;;;;12.80;4.27;;;;;;;24.23;42.07;98995.81;5009550;28;20187;-80
2022/04/26 08:32:59;;;;;;;8.67;3.90;;;;;;;24.50;41.66;98992.72;5008188;28;20187;-83
2022/04/26 08:35:27;;;;;;;13.27;4.23;;;;;;;24.92;41.15;98991.03;5006931;28;20186;-81
2022/04/26 08:37:53;;;;;;;17.43;4.90;;;;;;;24.61;42.26;98986.44;5010353;28;20214;-81
2022/04/26 08:40:19;;;;;;;13.33;4.97;;;;;;;24.34;43.27;98989.53;5009988;28;20194;-82
2022/04/26 08:42:46;;;;;;;11.27;4.60;;;;;;;24.41;43.11;98995.47;5008144;28;20549;-83
2022/04/26 08:45:20;;;;;;;13.87;4.70;;;;;;;24.41;42.80;98979.94;5018123;28;20685;-80
2022/04/26 08:53:20;;;;;;;35.73;18.27;;;;;;;24.92;41.39;98984.13;5028742;28;20263;-82
2022/04/26 08:55:50;;;;;;;106.70;45.43;;;;;;;24.67;40.93;98925.09;5011423;28;20819;-82
2022/04/26 08:58:18;;;;;;;13.93;4.30;;;;;;;25.01;39.43;98977.91;5025710;28;20296;-81
2022/04/26 09:01:05;;;;;;;12.07;4.10;;;;;;;25.28;38.94;98981.63;5028185;28;20190;-81
2022/04/26 09:03:35;;;;;;;8.80;3.20;;;;;;;24.74;38.39;98978.44;5016519;28;20186;-81
2022/04/26 09:06:07;;;;;;;9.10;2.77;;;;;;;24.83;38.36;98971.34;5010141;28;20183;-81
2022/04/26 09:08:33;;;;;;;6.73;2.80;;;;;;;24.41;37.65;98946.28;5008006;28;20207;-81
2022/04/26 09:11:00;;;;;;;10.57;3.10;;;;;;;24.72;37.53;98924.09;5008159;28;20214;-82
2022/04/26 09:13:26;;;;;;;11.10;3.50;;;;;;;25.05;36.81;98907.84;5007991;28;20647;-81
2022/04/26 09:15:55;;;;;;;17.57;2.80;;;;;;;25.26;36.59;98962.69;5006372;28;20226;-81
2022/04/26 09:18:30;;;;;;;7.93;2.67;;;;;;;25.37;36.23;98960.69;5007482;28;20680;-82
2022/04/26 09:20:58;;;;;;;11.87;3.80;;;;;;;25.03;36.38;98899.25;5007602;28;20186;-82
2022/04/26 09:23:28;;;;;;;5.63;3.00;;;;;;;25.05;36.25;98909.59;5023637;28;20266;-79
2022/04/26 09:26:08;;;;;;;8.60;3.07;;;;;;;25.43;36.28;98934.63;5010982;28;20193;-81
2022/04/26 09:28:37;;;;;;;8.87;3.20;;;;;;;25.16;37.22;98957.69;5007793;28;20179;-82
2022/04/26 09:31:25;;;;;;;9.00;2.80;;;;;;;25.53;36.44;98955.16;5007130;28;20198;-79
2022/04/26 09:33:57;;;;;;;7.40;2.40;;;;;;;25.62;35.35;98939.38;5007351;28;20183;-82
2022/04/26 09:36:28;;;;;;;8.50;2.80;;;;;;;25.17;35.48;98831.59;5005814;28;20182;-82
2022/04/26 09:38:59;;;;;;;7.93;2.60;;;;;;;26.04;33.48;98913.25;5006627;28;20557;-81
2022/04/26 09:41:26;;;;;;;11.90;2.60;;;;;;;25.93;33.80;98913.50;5007632;28;20635;-80
2022/04/26 09:44:03;;;;;;;6.23;2.67;;;;;;;26.32;33.80;98929.81;5007674;28;20209;-80
2022/04/26 09:46:46;;;;;;;6.50;2.20;;;;;;;26.53;31.66;98937.03;5019798;28;20213;-81
2022/04/26 09:49:15;;;;;;;8.30;2.38;;;;;;;26.53;31.72;98892.03;5027570;28;20179;-79
2022/04/26 09:51:42;;;;;;;6.47;2.28;;;;;;;26.78;31.45;98903.44;5026990;28;20199;-80
2022/04/26 09:54:07;;;;;;;7.03;2.10;;;;;;;25.42;32.39;98902.69;5025907;28;20186;-81
2022/04/26 09:56:34;;;;;;;7.10;2.40;;;;;;;25.94;33.45;98943.75;5026166;28;20179;-81
2022/04/26 09:59:02;;;;;;;7.40;2.17;;;;;;;25.60;32.94;98922.16;5026813;28;20577;-81
2022/04/26 10:01:34;;;;;;;7.77;2.50;;;;;;;26.11;33.21;98931.22;5026341;28;20214;-82
2022/04/26 10:04:04;;;;;;;8.80;2.50;;;;;;;25.76;33.51;98887.19;5016800;28;20186;-81
2022/04/26 10:06:37;;;;;;;9.35;3.15;;;;;;;26.14;32.98;98871.47;5008491;28;20198;-81
2022/04/26 10:09:05;;;;;;;7.68;2.80;;;;;;;26.51;32.69;98889.47;5008309;28;20188;-81
2022/04/26 10:11:31;;;;;;;8.15;2.60;;;;;;;26.28;32.62;98923.00;5008892;28;20282;-81
2022/04/26 10:13:58;;;;;;;5.50;2.22;;;;;;;25.67;33.62;98890.00;5008164;28;20271;-81
2022/04/26 10:16:24;;;;;;;9.27;2.30;;;;;;;25.24;34.26;98893.59;5007867;28;20727;-83
2022/04/26 10:18:50;;;;;;;5.97;2.47;;;;;;;25.08;33.53;98845.59;5007959;28;20233;-81
2022/04/26 10:21:22;;;;;;;6.97;2.40;;;;;;;25.59;33.47;98923.91;5023309;28;20178;-80
2022/04/26 10:23:50;;;;;;;7.87;2.50;;;;;;;25.88;33.14;98922.31;5025585;28;20218;-82
2022/04/26 10:26:22;;;;;;;6.60;2.50;;;;;;;26.04;33.68;98905.47;5025612;28;20182;-82
2022/04/26 10:28:50;;;;;;;6.03;2.60;;;;;;;25.85;34.33;98907.66;5045698;28;20194;-82
2022/04/26 10:31:17;;;;;;;9.10;2.63;;;;;;;25.78;34.02;98880.19;5021429;28;20194;-80
2022/04/26 10:33:44;;;;;;;5.73;2.40;;;;;;;25.62;33.65;98873.72;5029413;28;20316;-83
2022/04/26 10:36:31;;;;;;;5.80;2.40;;;;;;;25.80;33.91;98914.72;5029471;28;20179;-82
2022/04/26 10:39:23;;;;;;;11.37;2.30;;;;;;;25.34;33.07;98909.78;5029493;28;20209;-81
2022/04/26 10:41:49;;;;;;;4.87;2.17;;;;;;;25.47;33.33;98920.72;5007675;28;20201;-82
2022/04/26 10:44:18;;;;;;;7.90;2.47;;;;;;;25.75;32.78;98929.56;5009235;28;20832;-83
2022/04/26 10:46:52;;;;;;;6.63;2.15;;;;;;;25.56;32.90;98900.63;4999151;28;20584;-82
2022/04/26 10:49:23;;;;;;;8.23;2.43;;;;;;;26.02;33.05;98925.41;5003660;28;20639;-82
2022/04/26 10:51:53;;;;;;;8.65;2.53;;;;;;;26.32;33.20;98927.22;5004696;28;20694;-82
2022/04/26 10:54:55;;;;;;;6.75;2.20;;;;;;;26.42;32.13;98922.63;5005088;28;20195;-82
2022/04/26 10:57:29;;;;;;;12.32;2.38;;;;;;;26.55;31.34;98916.19;5005013;28;20244;-82
2022/04/26 11:00:02;;;;;;;10.57;3.20;;;;;;;26.07;31.70;98882.88;5006135;28;20195;-81
2022/04/26 11:02:33;;;;;;;5.18;2.30;;;;;;;26.78;31.55;98919.84;5006625;28;20195;-82
2022/04/26 11:05:13;;;;;;;5.28;2.25;;;;;;;26.90;31.46;98916.06;4995330;28;20322;-81
2022/04/26 11:07:41;;;;;;;5.93;2.30;;;;;;;26.80;32.13;98893.84;5006972;28;20285;-82
2022/04/26 11:10:08;;;;;;;9.55;2.30;;;;;;;26.34;32.58;98897.72;5007417;28;20247;-83
2022/04/26 11:12:36;;;;;;;6.65;2.38;;;;;;;26.34;32.31;98897.72;5007912;28;20208;-82
2022/04/26 11:15:09;;;;;;;7.35;2.40;;;;;;;26.24;32.72;98900.63;4999353;28;20258;-82
2022/04/26 11:17:35;;;;;;;9.88;2.20;;;;;;;26.48;33.33;98899.94;4994080;28;20250;-81
2022/04/26 11:20:05;;;;;;;10.25;2.47;;;;;;;26.65;32.63;98899.44;5030111;28;20214;-82
2022/04/26 11:22:31;;;;;;;5.75;2.28;;;;;;;26.29;33.27;98898.75;5033822;28;20215;-83
2022/04/26 11:28:09;;;;;;;8.07;2.30;;;;;;;27.15;32.10;98877.16;5024741;28;20655;-83
2022/04/26 11:30:55;;;;;;;12.02;3.13;;;;;;;27.61;31.52;98905.19;5033118;28;20321;-83
2022/04/26 11:33:22;;;;;;;9.02;2.30;;;;;;;28.31;29.96;98904.50;5033548;28;20285;-83
2022/04/26 11:35:55;;;;;;;8.18;2.40;;;;;;;26.89;31.75;98886.63;5031783;28;20184;-83
2022/04/26 11:38:21;;;;;;;7.47;2.55;;;;;;;26.56;33.27;98884.16;5029744;28;20225;-84
2022/04/26 11:40:54;;;;;;;8.15;2.72;;;;;;;27.34;32.49;98883.47;5029497;28;20271;-82
2022/04/26 11:43:28;;;;;;;10.13;2.88;;;;;;;28.18;31.35;98871.16;5029955;28;20181;-83
2022/04/26 11:45:56;;;;;;;12.20;2.60;;;;;;;28.13;31.19;98863.47;5030519;28;20182;-83
2022/04/26 11:48:24;;;;;;;5.75;2.45;;;;;;;28.83;31.46;98889.56;5022800;28;20553;-83
2022/04/26 11:50:52;;;;;;;7.78;2.38;;;;;;;28.68;31.41;98798.06;5009575;28;20692;-83
2022/04/26 11:53:22;;;;;;;7.35;2.28;;;;;;;29.06;31.19;98881.72;5028520;28;20604;-82
2022/04/26 11:56:03;;;;;;;7.63;2.30;;;;;;;29.27;29.89;98865.25;5030178;28;20272;-81
2022/04/26 11:58:34;;;;;;;10.25;2.50;;;;;;;28.74;30.93;98869.06;5029540;28;20212;-82
2022/04/26 12:01:07;;;;;;;4.57;2.30;;;;;;;27.59;31.93;98863.63;5020388;28;20587;-82
2022/04/26 12:03:49;;;;;;;10.77;2.75;;;;;;;28.05;32.48;98881.97;5012735;28;20189;-83
2022/04/26 12:06:17;;;;;;;13.25;3.00;;;;;;;28.20;31.42;98832.88;5009914;28;20383;-82
2022/04/26 12:08:48;;;;;;;7.35;2.50;;;;;;;29.00;30.12;98816.78;5029542;28;20197;-84
2022/04/26 12:11:16;;;;;;;9.85;2.78;;;;;;;30.01;29.63;98879.56;5028731;28;20255;-83
2022/04/26 12:13:41;;;;;;;5.82;2.40;;;;;;;29.78;29.62;98870.91;5031297;28;20184;-82
2022/04/26 12:16:14;;;;;;;7.45;2.33;;;;;;;29.87;28.86;98876.69;5031068;28;20226;-84
2022/04/26 12:18:48;;;;;;;7.30;2.40;;;;;;;29.98;28.59;98867.50;5030791;28;20209;-84
2022/04/26 12:21:13;;;;;;;4.93;2.25;;;;;;;30.21;28.90;98861.28;5030867;28;20178;-84
2022/04/26 12:23:39;;;;;;;8.45;2.72;;;;;;;29.55;30.82;98852.78;5026312;28;20268;-84
2022/04/26 12:26:07;;;;;;;4.43;2.30;;;;;;;29.50;29.96;98719.06;5031625;28;20714;-84
2022/04/26 12:28:44;;;;;;;7.13;2.70;;;;;;;30.74;28.15;98857.09;5031550;28;20174;-83
2022/04/26 12:31:25;;;;;;;5.93;2.30;;;;;;;30.00;28.04;98770.81;5029141;28;20231;-84
2022/04/26 12:34:12;;;;;;;8.02;2.72;;;;;;;30.51;28.10;98864.31;5030528;28;20182;-86
2022/04/26 12:37:08;;;;;;;9.25;2.65;;;;;;;30.05;29.05;98863.69;5046516;28;20184;-85
2022/04/26 12:39:44;;;;;;;6.32;2.40;;;;;;;29.50;29.19;98854.72;5031091;28;20177;-85
2022/04/26 12:42:28;;;;;;;6.68;2.75;;;;;;;30.06;28.54;98843.66;5032368;28;20173;-84
2022/04/26 12:45:10;;;;;;;10.50;2.78;;;;;;;30.35;28.67;98832.78;5029785;28;20234;-84
2022/04/26 12:50:29;;;;;;;9.80;2.90;;;;;;;29.79;29.24;98823.06;5032376;28;20220;-84
2022/04/26 12:53:05;;;;;;;9.80;2.92;;;;;;;30.07;29.55;98816.63;5031731;28;20314;-83
2022/04/26 12:55:42;;;;;;;8.90;3.00;;;;;;;30.36;29.33;98810.94;5033094;28;20179;-84
2022/04/26 12:58:08;;;;;;;8.18;3.03;;;;;;;29.55;30.02;98805.81;5032973;28;20196;-83
2022/04/26 13:00:42;;;;;;;9.45;3.00;;;;;;;28.16;31.09;98639.50;5032121;28;20169;-85
2022/04/26 13:03:09;;;;;;;8.95;3.05;;;;;;;29.73;30.71;98802.41;5031824;28;20194;-83
2022/04/26 13:05:36;;;;;;;7.55;2.90;;;;;;;29.35;30.67;98731.91;5032486;28;20188;-84
2022/04/26 13:08:02;;;;;;;8.25;3.13;;;;;;;30.37;28.74;98674.22;5032528;28;20169;-82
2022/04/26 13:10:27;;;;;;;9.18;3.08;;;;;;;31.96;26.58;98693.06;5034334;28;20191;-84
2022/04/26 13:12:53;;;;;;;9.00;2.85;;;;;;;32.41;25.94;98707.22;5047699;28;20170;-84
2022/04/26 13:15:23;;;;;;;6.82;2.88;;;;;;;32.78;26.22;98811.75;5031115;28;20622;-84
2022/04/26 13:17:49;;;;;;;6.55;2.75;;;;;;;31.48;27.14;98797.75;5047394;28;20657;-83
2022/04/26 13:20:15;;;;;;;11.63;3.25;;;;;;;30.92;27.84;98691.53;5030599;28;20217;-84
2022/04/26 13:22:41;;;;;;;11.40;3.63;;;;;;;31.46;27.20;98668.69;5031854;28;20619;-84
2022/04/26 13:25:07;;;;;;;5.38;3.03;;;;;;;31.56;27.66;98802.59;5031964;28;20253;-83
2022/04/26 13:27:34;;;;;;;7.68;3.63;;;;;;;31.18;28.87;98812.31;5032149;28;20172;-85
2022/04/26 13:30:00;;;;;;;7.20;3.28;;;;;;;30.99;27.77;98811.53;5031959;28;20185;-85
2022/04/26 13:32:26;;;;;;;8.02;3.10;;;;;;;31.13;27.56;98811.69;5028881;28;20197;-84
2022/04/26 13:34:52;;;;;;;6.88;3.05;;;;;;;31.27;26.77;98676.66;5030071;28;20176;-83
2022/04/26 13:37:19;;;;;;;7.55;3.03;;;;;;;30.93;28.20;98800.41;5031699;28;20259;-82
2022/04/26 13:39:45;;;;;;;7.18;3.40;;;;;;;30.66;28.36;98813.91;5031217;28;20631;-83
2022/04/26 13:42:12;;;;;;;7.82;3.35;;;;;;;29.25;29.61;98794.06;5031189;28;20161;-84
2022/04/26 13:44:38;;;;;;;10.07;2.90;;;;;;;28.53;31.14;98808.19;5031168;28;20178;-85
2022/04/26 13:47:06;;;;;;;7.82;3.17;;;;;;;29.78;29.79;98792.63;5035136;28;20175;-82
2022/04/26 13:49:34;;;;;;;12.02;3.50;;;;;;;31.25;28.11;98816.31;5039270;28;20174;-85
2022/04/26 13:52:00;;;;;;;13.60;3.03;;;;;;;31.07;26.44;98691.69;5031734;28;20181;-85
2022/04/26 13:54:27;;;;;;;10.07;3.47;;;;;;;31.26;25.26;98658.44;5029491;28;20181;-84
2022/04/26 13:56:54;;;;;;;9.10;3.20;;;;;;;31.17;25.48;98604.84;5030228;28;20177;-86
2022/04/26 13:59:19;;;;;;;10.07;3.05;;;;;;;30.61;27.24;98806.31;5031053;28;20177;-85
2022/04/26 14:01:45;;;;;;;9.23;3.13;;;;;;;28.55;29.79;98817.66;5031740;28;20172;-84
2022/04/26 14:04:10;;;;;;;8.18;3.03;;;;;;;27.26;31.95;98817.91;5032008;28;20220;-84
2022/04/26 14:06:35;;;;;;;12.07;3.50;;;;;;;26.23;32.72;98686.13;5033960;28;20189;-85
2022/04/26 14:09:01;;;;;;;10.15;3.58;;;;;;;26.56;33.27;98814.03;5034632;28;20248;-84
2022/04/26 14:11:26;;;;;;;6.85;3.22;;;;;;;26.34;32.56;98726.41;5033187;28;20929;-84
2022/04/26 14:22:04;;;;;;;6.97;3.20;;;;;;;25.72;34.37;98781.81;5034459;28;20275;-84
2022/04/26 14:24:29;;;;;;;8.25;3.30;;;;;;;25.14;34.61;98650.31;5030215;28;20183;-84
2022/04/26 14:26:55;;;;;;;8.57;3.72;;;;;;;25.24;35.04;98738.09;5034620;28;20186;-85
2022/04/26 14:29:20;;;;;;;7.35;4.20;;;;;;;26.06;34.87;98811.13;5034045;28;20219;-84
2022/04/26 14:31:47;;;;;;;8.70;3.70;;;;;;;25.77;35.25;98767.81;5035699;28;20225;-83
2022/04/26 14:34:14;;;;;;;10.10;3.70;;;;;;;23.73;35.67;98477.91;5033841;28;20167;-83
2022/04/26 14:36:40;;;;;;;11.27;4.00;;;;;;;25.92;35.48;98815.00;5034157;28;20228;-85
2022/04/26 14:39:05;;;;;;;7.55;3.83;;;;;;;25.58;35.41;98776.13;5017783;28;20225;-85
2022/04/26 14:41:31;;;;;;;10.27;3.40;;;;;;;25.31;36.26;98771.66;5034262;28;20174;-85
2022/04/26 14:43:56;;;;;;;8.05;3.78;;;;;;;24.68;36.57;98717.91;5018279;28;20364;-83
2022/04/26 14:46:22;;;;;;;11.68;4.03;;;;;;;24.92;36.93;98802.81;5025491;28;20190;-84
2022/04/26 14:48:47;;;;;;;10.73;3.75;;;;;;;23.99;36.96;98637.56;5032765;28;20239;-85
2022/04/26 14:51:13;;;;;;;7.95;3.92;;;;;;;24.37;37.61;98699.66;5047568;28;20181;-85
2022/04/26 14:53:38;;;;;;;9.45;3.97;;;;;;;23.84;38.17;98645.69;5034779;28;20632;-84
2022/04/26 14:56:05;;;;;;;7.50;3.87;;;;;;;23.29;39.30;98666.56;5034074;28;20182;-85
2022/04/26 14:58:30;;;;;;;7.67;3.90;;;;;;;23.95;39.29;98776.41;5031863;28;20233;-85
2022/04/26 15:00:56;;;;;;;9.73;3.80;;;;;;;24.10;40.02;98833.91;5032840;28;20232;-87
2022/04/26 15:03:21;;;;;;;8.50;4.33;;;;;;;24.44;39.70;98873.78;5033091;28;20178;-84
2022/04/26 15:05:46;;;;;;;7.77;3.80;;;;;;;23.96;40.47;98834.16;5031827;28;20218;-84
2022/04/26 15:10:56;;;;;;;7.47;4.10;;;;;;;23.51;42.00;98807.44;5033911;28;20244;-85
2022/04/26 15:18:49;;;;;;;9.93;4.30;;;;;;;22.91;44.26;98807.50;5034659;28;20604;-84
2022/04/26 15:21:15;;;;;;;7.53;4.10;;;;;;;22.21;48.01;98752.59;5033701;28;20186;-85
2022/04/26 15:23:40;;;;;;;10.73;4.63;;;;;;;21.97;49.18;98761.50;5032563;28;20170;-84
2022/04/26 15:26:10;;;;;;;10.53;4.43;;;;;;;22.34;51.65;98853.00;5025670;28;20174;-85
2022/04/26 15:28:36;;;;;;;9.63;4.83;;;;;;;22.51;52.85;98935.34;5011864;28;20273;-83
2022/04/26 15:31:01;;;;;;;9.67;4.73;;;;;;;22.29;52.52;98936.47;5014043;28;20218;-83
2022/04/26 15:33:27;;;;;;;5.97;4.30;;;;;;;22.34;54.29;98947.59;5012040;28;20713;-85
2022/04/26 15:35:55;;;;;;;8.67;4.83;;;;;;;21.43;56.41;98862.50;5024978;28;20577;-84
2022/04/26 15:38:20;;;;;;;10.53;5.20;;;;;;;21.74;56.75;98934.38;5013533;28;20213;-84
2022/04/26 15:40:50;;;;;;;7.13;5.00;;;;;;;21.68;56.63;98942.16;5031860;28;20186;-85